Time;durP1;ratioP1;P1;durP2;ratioP2;P2;SDS_P1;SDS_P2;PMS_P1;PMS_P2;Temp;Humidity;BMP_temperature;BMP_pressure;BME280_temperature;BME280_humidity;BME280_pressure;Samples;Min_cycle;Max_cycle;Signal;HPM_P1;HPM_P2
2021/05/27 00:01:25;;;;;;;29.13;26.80;;;;;;;;;;5015188;28;20444;-95
2021/05/27 00:03:51;;;;;;;30.27;28.27;;;;;;;;;;5015317;28;20512;-94
2021/05/27 00:06:18;;;;;;;32.90;30.27;;;;;;;;;;5015049;28;20434;-95
2021/05/27 00:08:45;;;;;;;32.47;29.57;;;;;;;;;;5015031;28;20814;-95
2021/05/27 00:11:13;;;;;;;29.27;27.17;;;;;;;;;;5015295;28;20422;-95
2021/05/27 00:13:40;;;;;;;35.87;32.70;;;;;;;;;;5014951;28;20460;-93
2021/05/27 00:16:07;;;;;;;34.13;31.13;;;;;;;;;;4997698;28;20410;-94
2021/05/27 00:18:34;;;;;;;33.00;30.33;;;;;;;;;;5014963;28;20483;-93
2021/05/27 00:21:02;;;;;;;33.23;30.60;;;;;;;;;;5014854;28;20437;-93
2021/05/27 00:23:28;;;;;;;32.43;29.93;;;;;;;;;;5015106;28;20823;-92
2021/05/27 00:25:55;;;;;;;32.67;30.43;;;;;;;;;;5015117;28;20469;-94
2021/05/27 00:28:23;;;;;;;33.90;31.20;;;;;;;;;;5015006;28;20451;-95
2021/05/27 00:30:50;;;;;;;31.90;29.40;;;;;;;;;;4997750;28;20426;-96
2021/05/27 00:33:17;;;;;;;33.20;30.27;;;;;;;;;;4997391;28;20434;-95
2021/05/27 00:35:44;;;;;;;29.90;27.80;;;;;;;;;;5014935;28;20433;-96
2021/05/27 00:38:11;;;;;;;31.63;29.10;;;;;;;;;;5014432;28;20470;-95
2021/05/27 00:40:38;;;;;;;27.00;25.10;;;;;;;;;;5014718;28;20448;-95
2021/05/27 00:43:05;;;;;;;29.00;26.80;;;;;;;;;;5014734;28;20901;-96
2021/05/27 00:45:33;;;;;;;31.40;29.30;;;;;;;;;;5014955;28;20436;-95
2021/05/27 00:48:00;;;;;;;32.30;29.70;;;;;;;;;;5014259;28;20462;-95
2021/05/27 00:50:27;;;;;;;31.17;28.63;;;;;;;;;;4997087;28;20422;-95
2021/05/27 00:52:55;;;;;;;31.98;29.45;;;;;;;;;;5014521;28;20426;-95
2021/05/27 00:55:23;;;;;;;33.30;31.20;;;;;;;;;;5014131;28;20215;-95
2021/05/27 00:57:50;;;;;;;32.50;30.40;;;;;;;;;;5013939;28;20503;-96
2021/05/27 01:00:19;;;;;;;31.23;29.43;;;;;;;;;;5014276;28;20459;-94
2021/05/27 01:02:47;;;;;;;30.83;28.83;;;;;;;;;;5014292;28;20456;-95
2021/05/27 01:05:14;;;;;;;29.30;27.80;;;;;;;;;;5014756;28;20474;-96
2021/05/27 01:07:41;;;;;;;28.83;27.33;;;;;;;;;;5014620;28;20438;-94
2021/05/27 01:10:09;;;;;;;32.80;31.00;;;;;;;;;;5014375;28;20422;-94
2021/05/27 01:12:37;;;;;;;31.70;29.57;;;;;;;;;;5014703;28;20422;-96
2021/05/27 01:17:49;;;;;;;32.10;30.50;;;;;;;;;;5014436;28;20838;-95
2021/05/27 01:20:16;;;;;;;31.50;30.00;;;;;;;;;;5014431;28;20415;-95
2021/05/27 01:22:45;;;;;;;31.80;30.20;;;;;;;;;;5014173;28;20419;-96
2021/05/27 01:25:12;;;;;;;32.00;30.40;;;;;;;;;;5014588;28;20422;-96
2021/05/27 01:27:40;;;;;;;34.57;32.77;;;;;;;;;;4997092;28;20450;-93
2021/05/27 01:30:08;;;;;;;35.30;33.50;;;;;;;;;;5014092;28;20422;-94
2021/05/27 01:32:36;;;;;;;34.37;32.53;;;;;;;;;;5013989;28;20931;-94
2021/05/27 01:35:05;;;;;;;36.30;34.13;;;;;;;;;;4996800;28;20442;-93
2021/05/27 01:37:32;;;;;;;35.37;33.57;;;;;;;;;;5013630;28;20466;-93
2021/05/27 01:40:01;;;;;;;35.50;33.80;;;;;;;;;;4996567;28;20816;-93
2021/05/27 01:42:28;;;;;;;35.40;33.67;;;;;;;;;;4997082;28;20295;-94
2021/05/27 01:44:55;;;;;;;36.97;35.13;;;;;;;;;;5013588;28;20442;-94
2021/05/27 01:47:22;;;;;;;34.80;33.10;;;;;;;;;;4980862;28;20440;-92
2021/05/27 01:49:49;;;;;;;35.20;33.50;;;;;;;;;;5013847;28;20464;-93
2021/05/27 01:52:16;;;;;;;36.83;35.03;;;;;;;;;;5014218;28;20975;-94
2021/05/27 01:54:43;;;;;;;37.70;35.70;;;;;;;;;;5013569;28;20505;-91
2021/05/27 01:57:10;;;;;;;36.93;35.03;;;;;;;;;;5013702;28;20532;-92
2021/05/27 01:59:37;;;;;;;38.47;36.60;;;;;;;;;;5013510;28;20445;-92
2021/05/27 02:02:04;;;;;;;36.50;34.70;;;;;;;;;;5013289;28;20946;-91
2021/05/27 02:04:31;;;;;;;37.00;35.10;;;;;;;;;;5014283;28;20913;-92
2021/05/27 02:06:58;;;;;;;38.20;36.20;;;;;;;;;;5014212;28;20406;-91
2021/05/27 02:09:25;;;;;;;40.70;38.47;;;;;;;;;;5017247;28;20402;-92
2021/05/27 02:11:52;;;;;;;38.23;36.23;;;;;;;;;;5017271;28;20439;-93
2021/05/27 02:14:20;;;;;;;37.33;35.37;;;;;;;;;;4984114;28;20418;-91
2021/05/27 02:16:47;;;;;;;39.77;37.80;;;;;;;;;;5016969;28;20461;-92
2021/05/27 02:19:14;;;;;;;37.80;36.00;;;;;;;;;;5017104;28;20454;-93
2021/05/27 02:21:42;;;;;;;37.90;36.00;;;;;;;;;;5016948;28;20796;-92
2021/05/27 02:24:09;;;;;;;38.20;36.40;;;;;;;;;;5017293;28;20450;-93
2021/05/27 02:26:37;;;;;;;36.10;34.20;;;;;;;;;;5017485;28;20427;-92
2021/05/27 02:29:04;;;;;;;36.50;34.57;;;;;;;;;;5017588;28;20421;-93
2021/05/27 02:31:32;;;;;;;37.50;35.37;;;;;;;;;;4983685;28;20453;-95
2021/05/27 02:33:59;;;;;;;34.80;33.20;;;;;;;;;;5016604;28;20444;-93
2021/05/27 02:36:27;;;;;;;35.73;33.83;;;;;;;;;;5016630;28;20487;-94
2021/05/27 02:38:54;;;;;;;35.47;33.77;;;;;;;;;;4999648;28;20443;-94
2021/05/27 02:41:22;;;;;;;34.63;32.93;;;;;;;;;;4999264;28;20450;-95
2021/05/27 02:43:49;;;;;;;34.17;32.47;;;;;;;;;;5016769;28;20445;-95
2021/05/27 02:46:16;;;;;;;35.17;33.37;;;;;;;;;;5016226;28;20869;-93
2021/05/27 02:48:44;;;;;;;35.63;33.73;;;;;;;;;;5016272;28;20457;-95
2021/05/27 02:51:11;;;;;;;32.97;31.23;;;;;;;;;;4999344;28;20423;-92
2021/05/27 02:53:38;;;;;;;32.13;30.43;;;;;;;;;;5016541;28;20452;-95
2021/05/27 02:56:05;;;;;;;30.80;29.30;;;;;;;;;;4999155;28;20464;-96
2021/05/27 02:58:32;;;;;;;33.07;31.27;;;;;;;;;;5016107;28;20956;-94
2021/05/27 03:00:59;;;;;;;32.53;30.73;;;;;;;;;;5016560;28;20445;-94
2021/05/27 03:03:27;;;;;;;30.40;28.90;;;;;;;;;;4983068;28;20425;-94
2021/05/27 03:05:55;;;;;;;33.67;31.77;;;;;;;;;;4999263;28;20498;-95
2021/05/27 03:08:21;;;;;;;31.37;29.77;;;;;;;;;;5016159;28;20438;-95
2021/05/27 03:10:49;;;;;;;31.60;29.83;;;;;;;;;;5016252;28;20449;-93
2021/05/27 03:13:16;;;;;;;29.73;28.23;;;;;;;;;;4999030;28;20463;-94
2021/05/27 03:15:43;;;;;;;30.23;28.30;;;;;;;;;;5016230;28;20430;-93
2021/05/27 03:18:10;;;;;;;30.40;28.80;;;;;;;;;;5015860;28;20459;-93
2021/05/27 03:20:37;;;;;;;31.33;29.67;;;;;;;;;;5014854;28;20467;-93
2021/05/27 03:23:06;;;;;;;30.97;29.07;;;;;;;;;;5015788;28;20472;-93
2021/05/27 03:25:33;;;;;;;32.37;30.57;;;;;;;;;;5015384;28;20430;-93
2021/05/27 03:28:00;;;;;;;32.63;30.83;;;;;;;;;;5015688;28;20441;-93
2021/05/27 03:30:28;;;;;;;32.10;30.50;;;;;;;;;;4998644;28;20441;-93
2021/05/27 03:32:55;;;;;;;31.77;30.17;;;;;;;;;;5015600;28;20487;-92
2021/05/27 03:35:22;;;;;;;29.87;28.37;;;;;;;;;;4998539;28;20801;-93
2021/05/27 03:37:49;;;;;;;31.10;29.40;;;;;;;;;;5015721;28;20473;-93
2021/05/27 03:40:18;;;;;;;33.03;31.33;;;;;;;;;;5015125;28;20476;-92
2021/05/27 03:42:46;;;;;;;31.80;30.10;;;;;;;;;;5015734;28;20205;-93
2021/05/27 03:45:13;;;;;;;32.27;30.50;;;;;;;;;;5015343;28;20435;-93
2021/05/27 03:47:41;;;;;;;33.77;31.63;;;;;;;;;;5015234;28;20466;-93
2021/05/27 03:50:09;;;;;;;34.25;32.35;;;;;;;;;;5015694;28;20526;-93
2021/05/27 03:52:36;;;;;;;30.43;28.70;;;;;;;;;;5015931;28;20192;-87
2021/05/27 03:55:04;;;;;;;32.17;30.47;;;;;;;;;;5015503;28;20443;-87
2021/05/27 03:57:32;;;;;;;31.60;29.73;;;;;;;;;;5015289;28;20505;-87
2021/05/27 04:02:45;;;;;;;33.47;30.70;;;;;;;;;;5015343;28;20431;-88
2021/05/27 04:07:57;;;;;;;32.17;30.47;;;;;;;;;;5015571;28;20510;-88
2021/05/27 04:10:24;;;;;;;29.37;27.77;;;;;;;;;;5015262;28;20414;-87
2021/05/27 04:12:52;;;;;;;31.57;29.77;;;;;;;;;;4998070;28;20451;-88
2021/05/27 04:15:20;;;;;;;32.73;30.93;;;;;;;;;;5015227;28;20426;-87
2021/05/27 04:17:47;;;;;;;30.80;28.87;;;;;;;;;;4997654;28;20487;-87
2021/05/27 04:20:14;;;;;;;33.93;32.17;;;;;;;;;;5015250;28;20442;-87
2021/05/27 04:22:42;;;;;;;32.40;30.40;;;;;;;;;;5014928;28;20456;-87
2021/05/27 04:25:10;;;;;;;31.67;29.97;;;;;;;;;;5015198;28;20446;-87
2021/05/27 04:27:37;;;;;;;29.93;28.23;;;;;;;;;;5014547;28;20426;-87
2021/05/27 04:30:13;;;;;;;32.57;30.50;;;;;;;;;;5014580;28;20447;-88
2021/05/27 04:32:56;;;;;;;29.70;28.10;;;;;;;;;;5014719;28;20463;-87
2021/05/27 04:35:24;;;;;;;30.80;29.03;;;;;;;;;;5000002;28;20443;-87
2021/05/27 04:37:51;;;;;;;32.30;30.37;;;;;;;;;;4997521;28;20468;-87
2021/05/27 04:40:19;;;;;;;32.17;30.13;;;;;;;;;;5014444;28;20459;-87
2021/05/27 04:42:45;;;;;;;32.10;30.13;;;;;;;;;;5014765;28;20193;-87
2021/05/27 04:45:14;;;;;;;30.42;28.77;;;;;;;;;;5014535;28;20829;-87
2021/05/27 04:47:41;;;;;;;32.13;30.17;;;;;;;;;;5014316;28;20717;-85
2021/05/27 04:50:09;;;;;;;31.57;29.67;;;;;;;;;;5014684;28;20200;-87
2021/05/27 04:52:36;;;;;;;29.77;28.07;;;;;;;;;;5014561;28;20899;-87
2021/05/27 04:55:03;;;;;;;29.43;27.80;;;;;;;;;;5014558;28;20398;-88
2021/05/27 04:57:30;;;;;;;31.20;29.40;;;;;;;;;;5014237;28;20481;-88
2021/05/27 04:59:57;;;;;;;31.73;29.93;;;;;;;;;;5014626;28;20426;-87
2021/05/27 05:02:25;;;;;;;32.27;30.17;;;;;;;;;;5014423;28;20421;-87
2021/05/27 05:04:52;;;;;;;32.73;30.73;;;;;;;;;;5014229;28;20896;-87
2021/05/27 05:07:19;;;;;;;31.00;29.10;;;;;;;;;;5014784;28;20422;-88
2021/05/27 05:09:46;;;;;;;31.57;29.60;;;;;;;;;;5014389;28;20440;-88
2021/05/27 05:12:13;;;;;;;31.47;29.30;;;;;;;;;;5014324;28;20473;-87
2021/05/27 05:14:39;;;;;;;31.47;29.27;;;;;;;;;;5014574;28;20797;-88
2021/05/27 05:17:07;;;;;;;32.37;30.47;;;;;;;;;;5014151;28;20488;-88
2021/05/27 05:19:34;;;;;;;31.67;29.77;;;;;;;;;;5014420;28;20436;-87
2021/05/27 05:22:01;;;;;;;32.80;30.70;;;;;;;;;;5014035;28;20418;-87
2021/05/27 05:24:28;;;;;;;32.63;30.70;;;;;;;;;;5014464;28;20858;-87
2021/05/27 05:26:55;;;;;;;33.03;31.10;;;;;;;;;;5014172;28;20451;-87
2021/05/27 05:29:22;;;;;;;28.90;27.40;;;;;;;;;;4997045;28;20426;-87
2021/05/27 05:31:49;;;;;;;33.07;31.00;;;;;;;;;;5013895;28;20932;-87
2021/05/27 05:34:16;;;;;;;31.43;29.73;;;;;;;;;;5015023;28;20765;-87
2021/05/27 05:36:44;;;;;;;34.30;31.67;;;;;;;;;;5014031;28;20457;-86
2021/05/27 05:39:11;;;;;;;34.03;32.03;;;;;;;;;;5013896;28;20438;-87
2021/05/27 05:41:40;;;;;;;31.20;29.30;;;;;;;;;;5013996;28;20414;-87
2021/05/27 05:44:07;;;;;;;33.33;31.10;;;;;;;;;;5017172;28;20531;-86
2021/05/27 05:46:35;;;;;;;32.07;29.97;;;;;;;;;;5017792;28;20398;-87
2021/05/27 05:49:01;;;;;;;33.03;30.63;;;;;;;;;;5017850;28;20855;-87
2021/05/27 05:51:28;;;;;;;35.33;32.80;;;;;;;;;;5000810;28;20444;-87
2021/05/27 05:53:56;;;;;;;34.63;32.17;;;;;;;;;;5000619;28;20448;-86
2021/05/27 05:56:23;;;;;;;35.03;32.90;;;;;;;;;;5017377;28;20451;-87
2021/05/27 05:58:50;;;;;;;36.50;33.83;;;;;;;;;;5018092;28;20961;-87
2021/05/27 06:01:17;;;;;;;36.47;33.80;;;;;;;;;;4999911;28;20542;-87
2021/05/27 06:03:44;;;;;;;33.10;31.13;;;;;;;;;;5017846;28;20896;-86
2021/05/27 06:06:12;;;;;;;35.67;33.30;;;;;;;;;;5017590;28;20445;-86
2021/05/27 06:08:40;;;;;;;33.17;31.17;;;;;;;;;;5017292;28;20410;-86
2021/05/27 06:11:08;;;;;;;32.40;30.50;;;;;;;;;;5017662;28;20531;-85
2021/05/27 06:13:35;;;;;;;35.00;32.63;;;;;;;;;;5017052;28;20414;-86
2021/05/27 06:16:02;;;;;;;35.17;32.70;;;;;;;;;;5017394;28;20413;-85
2021/05/27 06:18:28;;;;;;;34.67;32.47;;;;;;;;;;5017207;28;20473;-86
2021/05/27 06:20:55;;;;;;;35.90;33.23;;;;;;;;;;5017370;28;20440;-85
2021/05/27 06:23:22;;;;;;;34.27;32.17;;;;;;;;;;5017167;28;20451;-92
2021/05/27 06:25:49;;;;;;;33.63;31.53;;;;;;;;;;5018276;28;20455;-88
2021/05/27 06:28:17;;;;;;;35.83;33.23;;;;;;;;;;5016891;28;20455;-96
2021/05/27 06:30:44;;;;;;;32.73;30.63;;;;;;;;;;5019024;28;20441;-96
2021/05/27 06:33:11;;;;;;;33.77;31.50;;;;;;;;;;5017621;28;20828;-84
2021/05/27 06:35:38;;;;;;;33.10;31.00;;;;;;;;;;5016577;28;20444;-84
2021/05/27 06:38:07;;;;;;;32.37;30.53;;;;;;;;;;4999130;28;20501;-84
2021/05/27 06:40:34;;;;;;;35.20;33.00;;;;;;;;;;5016743;28;20782;-85
2021/05/27 06:43:01;;;;;;;34.00;31.60;;;;;;;;;;5016385;28;20444;-84
2021/05/27 06:45:29;;;;;;;30.53;28.70;;;;;;;;;;5016067;28;20900;-82
2021/05/27 06:47:56;;;;;;;34.67;32.50;;;;;;;;;;5016206;28;20492;-83
2021/05/27 06:50:35;;;;;;;35.50;32.90;;;;;;;;;;5016311;28;20447;-83
2021/05/27 06:53:03;;;;;;;32.93;30.93;;;;;;;;;;5016294;28;20521;-85
2021/05/27 06:55:30;;;;;;;35.20;33.00;;;;;;;;;;5016166;28;21017;-83
2021/05/27 06:57:57;;;;;;;30.63;28.93;;;;;;;;;;5016184;28;20837;-83
2021/05/27 07:00:24;;;;;;;32.70;30.83;;;;;;;;;;5016601;28;20426;-88
2021/05/27 07:02:52;;;;;;;32.57;30.47;;;;;;;;;;5016227;28;20427;-88
2021/05/27 07:05:19;;;;;;;33.53;31.63;;;;;;;;;;5016633;28;20418;-87
2021/05/27 07:07:47;;;;;;;33.10;30.87;;;;;;;;;;5017558;28;20480;-93
2021/05/27 07:10:15;;;;;;;34.20;31.90;;;;;;;;;;4999102;28;20409;-89
2021/05/27 07:12:49;;;;;;;32.80;30.60;;;;;;;;;;5016398;28;20428;-85
2021/05/27 07:15:17;;;;;;;33.40;31.30;;;;;;;;;;5016412;28;20406;-89
2021/05/27 07:17:44;;;;;;;29.77;28.17;;;;;;;;;;5015924;28;20951;-94
2021/05/27 07:20:13;;;;;;;33.77;31.77;;;;;;;;;;5016458;28;20422;-92
2021/05/27 07:22:40;;;;;;;32.93;30.83;;;;;;;;;;5015949;28;20460;-88
2021/05/27 07:25:08;;;;;;;33.30;31.40;;;;;;;;;;4998833;28;20415;-88
2021/05/27 07:27:35;;;;;;;32.27;30.37;;;;;;;;;;5016269;28;20422;-88
2021/05/27 07:30:02;;;;;;;33.93;31.90;;;;;;;;;;5015650;28;20443;-87
2021/05/27 07:32:29;;;;;;;29.30;27.80;;;;;;;;;;5015915;28;20465;-87
2021/05/27 07:34:56;;;;;;;31.43;29.63;;;;;;;;;;5016717;28;20869;-84
2021/05/27 07:37:24;;;;;;;32.47;30.53;;;;;;;;;;5016331;28;20487;-88
2021/05/27 07:39:51;;;;;;;32.07;30.17;;;;;;;;;;5015599;28;20520;-88
2021/05/27 07:42:18;;;;;;;33.20;31.20;;;;;;;;;;5015820;28;20421;-93
2021/05/27 07:44:45;;;;;;;32.40;30.40;;;;;;;;;;5015678;28;20949;-85
2021/05/27 07:47:12;;;;;;;32.03;30.20;;;;;;;;;;5015726;28;20449;-83
2021/05/27 07:49:39;;;;;;;33.40;31.40;;;;;;;;;;4993993;28;20514;-82
2021/05/27 07:52:06;;;;;;;30.33;28.60;;;;;;;;;;4995430;28;20437;-83
2021/05/27 07:54:34;;;;;;;31.63;29.77;;;;;;;;;;4995128;28;20881;-82
2021/05/27 07:57:01;;;;;;;32.43;30.63;;;;;;;;;;4994978;28;20559;-81
2021/05/27 07:59:28;;;;;;;31.50;29.40;;;;;;;;;;4994971;28;20496;-82
2021/05/27 08:01:55;;;;;;;31.50;29.70;;;;;;;;;;4994990;28;20412;-82
2021/05/27 08:04:22;;;;;;;30.97;29.33;;;;;;;;;;4994963;28;20419;-82
2021/05/27 08:06:49;;;;;;;31.57;29.87;;;;;;;;;;4994673;28;20429;-83
2021/05/27 08:09:16;;;;;;;31.50;29.67;;;;;;;;;;4995296;28;20443;-80
2021/05/27 08:11:44;;;;;;;30.00;28.40;;;;;;;;;;4993938;28;20488;-82
2021/05/27 08:14:11;;;;;;;29.63;27.73;;;;;;;;;;4994871;28;20913;-82
2021/05/27 08:16:38;;;;;;;30.50;28.90;;;;;;;;;;4995177;28;20449;-83
2021/05/27 08:19:05;;;;;;;30.93;29.23;;;;;;;;;;4995084;28;20588;-83
2021/05/27 08:21:32;;;;;;;27.77;26.23;;;;;;;;;;4994997;28;20419;-82
2021/05/27 08:24:00;;;;;;;30.53;28.87;;;;;;;;;;4995134;28;20451;-84
2021/05/27 08:26:27;;;;;;;29.20;27.50;;;;;;;;;;4995149;28;20416;-84
2021/05/27 08:28:54;;;;;;;28.50;27.00;;;;;;;;;;4994824;28;20800;-83
2021/05/27 08:31:21;;;;;;;29.93;28.23;;;;;;;;;;4994917;28;20430;-82
2021/05/27 08:33:49;;;;;;;31.60;29.80;;;;;;;;;;4994854;28;20415;-80
2021/05/27 08:36:16;;;;;;;32.87;30.80;;;;;;;;;;4994603;28;20424;-83
2021/05/27 08:38:43;;;;;;;30.73;28.87;;;;;;;;;;4994679;28;20572;-84
2021/05/27 08:41:11;;;;;;;31.30;29.17;;;;;;;;;;4993783;28;20431;-81
2021/05/27 08:43:38;;;;;;;30.57;28.77;;;;;;;;;;4993427;28;20449;-82
2021/05/27 08:46:06;;;;;;;28.00;26.33;;;;;;;;;;4994685;28;20558;-81
2021/05/27 08:48:33;;;;;;;30.37;28.57;;;;;;;;;;5004727;28;20485;-81
2021/05/27 08:51:00;;;;;;;28.83;27.20;;;;;;;;;;5014301;28;20414;-84
2021/05/27 08:53:28;;;;;;;30.20;28.40;;;;;;;;;;5014164;28;20426;-81
2021/05/27 08:55:55;;;;;;;31.17;29.30;;;;;;;;;;4996975;28;20480;-82
2021/05/27 08:58:22;;;;;;;30.77;29.00;;;;;;;;;;5013673;28;20503;-88
2021/05/27 09:00:49;;;;;;;29.77;28.07;;;;;;;;;;4996560;28;20415;-85
2021/05/27 09:03:18;;;;;;;28.30;26.80;;;;;;;;;;5013947;28;20423;-83
2021/05/27 09:05:46;;;;;;;31.63;29.53;;;;;;;;;;5014079;28;20521;-84
2021/05/27 09:08:27;;;;;;;32.87;31.07;;;;;;;;;;5014035;28;20415;-85
2021/05/27 09:10:56;;;;;;;29.30;27.80;;;;;;;;;;5014433;28;20470;-78
2021/05/27 09:13:23;;;;;;;30.63;28.93;;;;;;;;;;5011261;28;20440;-78
2021/05/27 09:15:51;;;;;;;28.60;27.20;;;;;;;;;;5013688;28;20411;-79
2021/05/27 09:18:30;;;;;;;27.83;26.43;;;;;;;;;;4998038;28;20524;-79
2021/05/27 09:20:57;;;;;;;29.27;27.67;;;;;;;;;;5017874;28;20444;-81
2021/05/27 09:23:24;;;;;;;29.77;28.27;;;;;;;;;;5017647;28;20415;-84
2021/05/27 09:25:52;;;;;;;29.67;28.13;;;;;;;;;;5017320;28;20415;-83
2021/05/27 09:28:20;;;;;;;30.30;28.50;;;;;;;;;;5016773;28;20501;-81
2021/05/27 09:30:48;;;;;;;29.50;27.80;;;;;;;;;;5017359;28;20788;-83
2021/05/27 09:33:16;;;;;;;29.93;28.23;;;;;;;;;;5017600;28;20761;-84
2021/05/27 09:35:43;;;;;;;30.33;28.73;;;;;;;;;;5017980;28;20440;-86
2021/05/27 09:38:11;;;;;;;31.50;29.70;;;;;;;;;;5017407;28;20813;-82
2021/05/27 09:40:39;;;;;;;29.13;27.63;;;;;;;;;;5017081;28;20451;-85
2021/05/27 09:43:07;;;;;;;30.23;28.63;;;;;;;;;;5017135;28;20464;-84
2021/05/27 09:45:35;;;;;;;29.47;27.77;;;;;;;;;;4999940;28;20419;-83
2021/05/27 09:48:17;;;;;;;25.83;24.17;;;;;;;;;;5016871;28;20495;-82
2021/05/27 09:50:46;;;;;;;26.50;24.90;;;;;;;;;;5017538;28;20418;-80
2021/05/27 09:53:15;;;;;;;27.00;25.50;;;;;;;;;;5017103;28;20434;-79
2021/05/27 09:55:42;;;;;;;25.63;24.23;;;;;;;;;;5017153;28;20443;-84
2021/05/27 09:58:10;;;;;;;25.90;24.40;;;;;;;;;;5016106;28;20484;-83
2021/05/27 10:00:37;;;;;;;25.03;23.70;;;;;;;;;;5017642;28;20510;-81
2021/05/27 10:03:22;;;;;;;24.80;23.40;;;;;;;;;;5016895;28;20425;-81
2021/05/27 10:05:50;;;;;;;25.07;23.67;;;;;;;;;;4999555;28;20418;-80
2021/05/27 10:08:19;;;;;;;24.27;22.63;;;;;;;;;;5016931;28;20425;-82
2021/05/27 10:10:46;;;;;;;29.40;27.80;;;;;;;;;;5016711;28;20791;-81
2021/05/27 10:13:17;;;;;;;24.93;23.53;;;;;;;;;;4999513;28;20444;-81
2021/05/27 10:15:46;;;;;;;25.77;24.37;;;;;;;;;;5016564;28;20419;-80
2021/05/27 10:18:15;;;;;;;25.17;23.77;;;;;;;;;;5016496;28;20454;-84
2021/05/27 10:20:42;;;;;;;22.00;20.77;;;;;;;;;;5016547;28;20893;-83
2021/05/27 10:23:10;;;;;;;24.80;23.10;;;;;;;;;;5016806;28;20414;-81
2021/05/27 10:25:38;;;;;;;24.03;22.53;;;;;;;;;;5015863;28;20436;-81
2021/05/27 10:28:06;;;;;;;25.07;23.37;;;;;;;;;;5015785;28;21003;-81
2021/05/27 10:30:37;;;;;;;23.97;22.67;;;;;;;;;;5015809;28;20441;-82
2021/05/27 10:33:06;;;;;;;22.57;21.23;;;;;;;;;;5017125;28;20419;-84
2021/05/27 10:35:51;;;;;;;25.13;23.60;;;;;;;;;;5000531;28;20426;-83
2021/05/27 10:38:38;;;;;;;24.60;23.20;;;;;;;;;;5016460;28;20458;-85
2021/05/27 10:41:06;;;;;;;24.20;22.80;;;;;;;;;;5017764;28;20957;-86
2021/05/27 10:43:34;;;;;;;26.20;24.60;;;;;;;;;;5016506;28;20422;-86
2021/05/27 10:46:08;;;;;;;25.13;23.73;;;;;;;;;;4999771;28;20422;-86
2021/05/27 10:48:45;;;;;;;27.53;25.93;;;;;;;;;;5016288;28;20845;-81
2021/05/27 10:51:22;;;;;;;23.23;21.90;;;;;;;;;;4999006;28;20422;-88
2021/05/27 10:54:01;;;;;;;23.80;22.23;;;;;;;;;;5016006;28;20485;-84
2021/05/27 10:56:41;;;;;;;25.83;24.20;;;;;;;;;;5015868;28;20900;-83
2021/05/27 10:59:09;;;;;;;24.87;23.50;;;;;;;;;;5015711;28;20466;-78
2021/05/27 11:01:52;;;;;;;22.57;21.30;;;;;;;;;;5015680;28;20419;-78
2021/05/27 11:04:23;;;;;;;22.30;21.10;;;;;;;;;;5015487;28;20433;-83
2021/05/27 11:06:50;;;;;;;21.23;20.13;;;;;;;;;;5014670;28;20483;-81
2021/05/27 11:09:35;;;;;;;23.00;21.70;;;;;;;;;;5015613;28;20411;-81
2021/05/27 11:12:16;;;;;;;21.63;20.53;;;;;;;;;;5014649;28;20454;-81
2021/05/27 11:14:46;;;;;;;23.00;21.60;;;;;;;;;;5014991;28;20439;-79
2021/05/27 11:17:21;;;;;;;23.07;21.77;;;;;;;;;;5015023;28;20415;-79
2021/05/27 11:19:51;;;;;;;24.20;22.77;;;;;;;;;;5015434;28;20448;-81
2021/05/27 11:22:39;;;;;;;23.47;22.27;;;;;;;;;;5014908;28;20434;-80
2021/05/27 11:25:25;;;;;;;23.33;22.00;;;;;;;;;;5015531;28;20761;-80
2021/05/27 11:27:53;;;;;;;23.90;22.67;;;;;;;;;;5015453;28;20526;-82
2021/05/27 11:30:21;;;;;;;22.63;21.43;;;;;;;;;;5015072;28;20445;-81
2021/05/27 11:32:49;;;;;;;21.03;19.93;;;;;;;;;;5015252;28;20415;-79
2021/05/27 11:35:17;;;;;;;22.40;21.20;;;;;;;;;;4997863;28;20443;-83
2021/05/27 11:37:44;;;;;;;22.80;21.43;;;;;;;;;;5014919;28;20840;-81
2021/05/27 11:40:12;;;;;;;23.33;21.83;;;;;;;;;;5014292;28;20427;-82
2021/05/27 11:42:40;;;;;;;23.20;21.93;;;;;;;;;;5015288;28;20458;-83
2021/05/27 11:45:08;;;;;;;23.30;22.00;;;;;;;;;;5015233;28;20419;-82
2021/05/27 11:47:35;;;;;;;22.70;21.40;;;;;;;;;;5014719;28;20483;-80
2021/05/27 11:50:04;;;;;;;22.63;21.43;;;;;;;;;;5014671;28;20464;-81
2021/05/27 11:52:31;;;;;;;22.93;21.53;;;;;;;;;;5014691;28;20442;-84
2021/05/27 11:54:58;;;;;;;22.87;21.50;;;;;;;;;;4997378;28;20443;-81
2021/05/27 11:57:40;;;;;;;21.20;20.00;;;;;;;;;;5014779;28;20484;-80
2021/05/27 12:00:09;;;;;;;23.00;21.80;;;;;;;;;;5014739;28;20914;-81
2021/05/27 12:02:42;;;;;;;23.93;22.63;;;;;;;;;;5014579;28;20437;-83
2021/05/27 12:05:19;;;;;;;25.53;23.83;;;;;;;;;;5014642;28;20897;-81
2021/05/27 12:07:56;;;;;;;23.03;21.77;;;;;;;;;;5013394;28;20958;-84
2021/05/27 12:10:24;;;;;;;26.03;24.07;;;;;;;;;;5011560;28;20411;-81
2021/05/27 12:12:50;;;;;;;26.63;25.23;;;;;;;;;;5013965;28;20527;-82
2021/05/27 12:15:21;;;;;;;27.93;26.33;;;;;;;;;;5013936;28;20422;-84
2021/05/27 12:17:49;;;;;;;30.03;28.23;;;;;;;;;;5013766;28;20486;-82
2021/05/27 12:20:17;;;;;;;34.63;32.17;;;;;;;;;;5014392;28;20404;-83
2021/05/27 12:22:49;;;;;;;39.37;36.77;;;;;;;;;;5014441;28;20485;-86
2021/05/27 12:25:16;;;;;;;47.67;44.23;;;;;;;;;;5014413;28;20434;-86
2021/05/27 12:27:44;;;;;;;45.80;41.80;;;;;;;;;;4996535;28;20433;-82
2021/05/27 12:30:11;;;;;;;42.17;39.97;;;;;;;;;;5013731;28;20449;-83
2021/05/27 12:32:43;;;;;;;40.53;38.20;;;;;;;;;;5013438;28;20426;-81
2021/05/27 12:35:10;;;;;;;42.20;39.70;;;;;;;;;;5013075;28;20431;-85
2021/05/27 12:37:38;;;;;;;43.07;40.30;;;;;;;;;;5013163;28;20809;-77
2021/05/27 12:40:06;;;;;;;40.23;37.87;;;;;;;;;;4996309;28;20446;-81
2021/05/27 12:42:37;;;;;;;40.00;37.67;;;;;;;;;;5014112;28;20780;-77
2021/05/27 12:45:22;;;;;;;40.80;38.60;;;;;;;;;;5014297;28;20415;-82
2021/05/27 12:48:04;;;;;;;40.03;37.70;;;;;;;;;;5013678;28;20480;-78
2021/05/27 12:50:32;;;;;;;39.77;37.77;;;;;;;;;;5014022;28;20411;-80
2021/05/27 12:52:59;;;;;;;39.70;37.50;;;;;;;;;;5014044;28;20450;-77
2021/05/27 12:55:30;;;;;;;39.47;37.27;;;;;;;;;;5013769;28;20478;-77
2021/05/27 12:57:59;;;;;;;40.60;38.00;;;;;;;;;;5013764;28;20518;-77
2021/05/27 13:00:26;;;;;;;40.27;38.00;;;;;;;;;;5013754;28;20440;-76
2021/05/27 13:02:59;;;;;;;40.97;38.53;;;;;;;;;;5013501;28;20411;-76
2021/05/27 13:05:27;;;;;;;40.00;37.70;;;;;;;;;;5013885;28;20440;-76
2021/05/27 13:07:55;;;;;;;40.67;38.57;;;;;;;;;;5013697;28;20942;-78
2021/05/27 13:10:28;;;;;;;39.87;37.77;;;;;;;;;;5013845;28;20423;-76
2021/05/27 13:12:55;;;;;;;38.80;36.20;;;;;;;;;;5013675;28;20791;-76
2021/05/27 13:15:22;;;;;;;41.73;39.33;;;;;;;;;;5013898;28;20412;-76
2021/05/27 13:18:02;;;;;;;39.33;37.23;;;;;;;;;;5013702;28;21005;-76
2021/05/27 13:20:31;;;;;;;40.57;38.00;;;;;;;;;;5013571;28;20440;-76
2021/05/27 13:22:57;;;;;;;39.87;37.57;;;;;;;;;;5013303;28;20434;-75
2021/05/27 13:25:29;;;;;;;37.93;35.83;;;;;;;;;;5013541;28;20403;-78
2021/05/27 13:27:58;;;;;;;37.30;35.07;;;;;;;;;;5013477;28;20431;-78
2021/05/27 13:30:28;;;;;;;37.77;35.50;;;;;;;;;;5013589;28;20437;-78
2021/05/27 13:33:03;;;;;;;35.97;34.07;;;;;;;;;;5013550;28;20465;-77
2021/05/27 13:35:31;;;;;;;35.57;33.67;;;;;;;;;;5014103;28;20447;-78
2021/05/27 13:37:59;;;;;;;32.80;31.10;;;;;;;;;;4996368;28;20501;-78
2021/05/27 13:40:27;;;;;;;33.20;31.40;;;;;;;;;;5013042;28;20461;-78
2021/05/27 13:42:55;;;;;;;35.40;33.50;;;;;;;;;;5013863;28;20443;-77
2021/05/27 13:45:23;;;;;;;34.40;32.10;;;;;;;;;;5013100;28;20435;-79
2021/05/27 13:47:50;;;;;;;32.23;30.53;;;;;;;;;;5013142;28;20518;-78
2021/05/27 13:50:18;;;;;;;31.83;29.87;;;;;;;;;;5013192;28;20465;-79
2021/05/27 13:52:46;;;;;;;32.70;30.97;;;;;;;;;;5013217;28;20415;-79
2021/05/27 13:55:16;;;;;;;31.53;29.63;;;;;;;;;;5013134;28;20476;-79
2021/05/27 13:57:43;;;;;;;30.77;28.80;;;;;;;;;;5013488;28;20491;-82
2021/05/27 14:00:11;;;;;;;32.13;30.33;;;;;;;;;;5013247;28;20448;-78
2021/05/27 14:02:39;;;;;;;31.27;29.43;;;;;;;;;;4995805;28;20495;-81
2021/05/27 14:05:07;;;;;;;31.00;29.30;;;;;;;;;;4999097;28;20443;-79
2021/05/27 14:07:34;;;;;;;30.30;28.70;;;;;;;;;;5016775;28;20434;-79
2021/05/27 14:10:02;;;;;;;31.07;29.27;;;;;;;;;;5016954;28;20461;-78
2021/05/27 14:12:29;;;;;;;31.17;29.30;;;;;;;;;;5016584;28;20905;-78
2021/05/27 14:14:57;;;;;;;29.87;28.17;;;;;;;;;;5016523;28;20451;-79
2021/05/27 14:17:24;;;;;;;29.63;27.90;;;;;;;;;;5016658;28;20440;-79
2021/05/27 14:19:54;;;;;;;26.70;25.20;;;;;;;;;;5016677;28;20440;-79
2021/05/27 14:22:21;;;;;;;25.57;23.90;;;;;;;;;;4999148;28;20434;-79
2021/05/27 14:24:48;;;;;;;25.07;23.67;;;;;;;;;;5016719;28;20448;-78
2021/05/27 14:27:16;;;;;;;23.40;21.90;;;;;;;;;;5016162;28;20460;-80
2021/05/27 14:29:45;;;;;;;23.83;22.20;;;;;;;;;;5016190;28;20444;-79
2021/05/27 14:32:12;;;;;;;23.20;21.90;;;;;;;;;;5016391;28;20443;-79